Time;durP1;ratioP1;P1;durP2;ratioP2;P2;SDS_P1;SDS_P2;PMS_P1;PMS_P2;Temp;Humidity;BMP_temperature;BMP_pressure;BME280_temperature;BME280_humidity;BME280_pressure;Samples;Min_cycle;Max_cycle;Signal;HPM_P1;HPM_P2
2023/12/04 00:01:19;;;;;;;156.95;59.90;;;15.20;57.80;;;;;;4969341;28;95664;-77
2023/12/04 00:03:45;;;;;;;157.90;60.92;;;15.10;57.70;;;;;;4961652;28;95045;-78
2023/12/04 00:06:11;;;;;;;156.50;59.10;;;15.10;57.80;;;;;;4968358;28;95058;-78
2023/12/04 00:08:37;;;;;;;158.40;60.10;;;15.00;57.70;;;;;;4968596;28;95619;-80
2023/12/04 00:11:04;;;;;;;156.98;59.72;;;15.00;57.80;;;;;;4947736;28;98222;-80
2023/12/04 00:13:30;;;;;;;156.50;59.75;;;15.00;57.80;;;;;;4973629;28;95568;-79
2023/12/04 00:15:56;;;;;;;156.50;59.40;;;14.90;57.70;;;;;;4972947;28;94460;-78
2023/12/04 00:18:21;;;;;;;156.52;59.33;;;14.90;57.80;;;;;;4968774;28;98277;-78
2023/12/04 00:20:47;;;;;;;156.50;59.83;;;14.90;57.80;;;;;;4974463;28;95259;-78
2023/12/04 00:23:12;;;;;;;155.63;58.80;;;14.90;57.90;;;;;;4974163;28;95635;-78
2023/12/04 00:25:38;;;;;;;157.55;60.08;;;14.90;57.80;;;;;;4958180;28;97072;-79
2023/12/04 00:28:04;;;;;;;155.70;59.63;;;14.80;57.90;;;;;;4956351;28;98924;-78
2023/12/04 00:30:29;;;;;;;156.88;59.60;;;14.80;57.90;;;;;;4971484;28;95513;-80
2023/12/04 00:32:55;;;;;;;156.35;58.97;;;14.80;57.90;;;;;;4975345;28;95235;-79
2023/12/04 00:35:21;;;;;;;159.27;59.92;;;14.80;58.00;;;;;;4970019;28;94338;-79
2023/12/04 00:37:46;;;;;;;156.63;59.60;;;14.80;57.90;;;;;;4955982;28;97942;-78
2023/12/04 00:40:12;;;;;;;154.38;58.42;;;14.70;58.00;;;;;;4956092;28;97732;-79
2023/12/04 00:42:38;;;;;;;156.43;59.30;;;14.70;57.90;;;;;;4955041;28;95925;-80
2023/12/04 00:45:04;;;;;;;155.02;58.53;;;14.70;58.00;;;;;;4970352;28;95577;-80
2023/12/04 00:47:29;;;;;;;154.15;58.50;;;14.70;57.90;;;;;;4970994;28;95994;-80
2023/12/04 00:49:55;;;;;;;154.50;58.78;;;14.60;57.90;;;;;;4975949;28;97224;-79
2023/12/04 00:52:21;;;;;;;155.13;59.03;;;14.60;58.10;;;;;;4955289;28;95375;-79
2023/12/04 00:54:46;;;;;;;154.60;58.80;;;14.60;58.00;;;;;;4977436;28;95102;-79
2023/12/04 00:57:12;;;;;;;154.25;58.47;;;14.60;58.10;;;;;;4973855;28;95922;-78
2023/12/04 00:59:38;;;;;;;156.43;59.65;;;14.60;58.10;;;;;;4955061;28;97289;-78
2023/12/04 01:02:06;;;;;;;154.52;58.35;;;14.60;58.00;;;;;;4955317;28;95688;-79
2023/12/04 01:04:32;;;;;;;155.30;58.85;;;14.50;58.00;;;;;;4972802;28;96299;-79
2023/12/04 01:06:58;;;;;;;154.10;58.42;;;14.60;58.10;;;;;;4972399;28;96887;-80
2023/12/04 01:09:24;;;;;;;155.18;58.40;;;14.50;58.10;;;;;;4968473;28;96223;-81
2023/12/04 01:11:52;;;;;;;153.45;58.05;;;14.50;58.10;;;;;;4950478;28;95224;-76
2023/12/04 01:31:09;;;;;;;;;;;14.30;58.10;;;;;;4793999;28;98791;-79
2023/12/04 01:33:34;;;;;;;153.30;59.10;;;14.30;58.10;;;;;;4957661;28;99483;-79
2023/12/04 01:36:01;;;;;;;154.23;59.35;;;14.30;58.10;;;;;;4963061;28;96876;-80
2023/12/04 01:38:27;;;;;;;153.95;59.00;;;14.30;58.20;;;;;;4969011;28;94845;-79
2023/12/04 01:40:52;;;;;;;153.90;59.20;;;14.30;58.10;;;;;;4967796;28;96218;-79
2023/12/04 01:43:18;;;;;;;154.70;58.95;;;14.30;58.10;;;;;;4972219;28;96117;-78
2023/12/04 01:45:44;;;;;;;155.18;60.15;;;14.30;58.10;;;;;;4966972;28;94709;-80
2023/12/04 01:48:11;;;;;;;153.90;58.83;;;14.20;58.20;;;;;;4971474;28;95144;-75
2023/12/04 01:50:38;;;;;;;152.88;58.67;;;14.20;58.10;;;;;;4969353;28;96684;-75
2023/12/04 01:53:04;;;;;;;153.77;58.20;;;14.20;58.00;;;;;;4964561;28;95240;-78
2023/12/04 01:55:30;;;;;;;153.57;58.80;;;14.20;58.20;;;;;;4973479;28;98333;-78
2023/12/04 01:57:56;;;;;;;153.02;58.13;;;14.20;58.20;;;;;;4950875;28;101665;-79
2023/12/04 02:00:22;;;;;;;152.15;58.05;;;14.20;58.20;;;;;;4971236;28;97504;-78
2023/12/04 02:02:48;;;;;;;152.35;58.08;;;14.20;58.10;;;;;;4974038;28;95470;-77
2023/12/04 02:05:14;;;;;;;151.95;57.72;;;14.20;58.10;;;;;;4966830;28;96492;-78
2023/12/04 02:07:43;;;;;;;153.57;58.50;;;14.10;58.00;;;;;;4965924;28;96177;-79
2023/12/04 02:10:09;;;;;;;153.73;58.80;;;14.10;58.10;;;;;;4967914;28;94890;-79
2023/12/04 02:12:35;;;;;;;153.80;58.67;;;14.10;58.10;;;;;;4971428;28;96558;-78
2023/12/04 02:15:01;;;;;;;152.35;58.50;;;14.10;58.10;;;;;;4966704;28;94689;-78
2023/12/04 02:17:29;;;;;;;152.98;58.90;;;14.00;58.20;;;;;;4967253;28;95128;-78
2023/12/04 02:19:55;;;;;;;152.57;58.88;;;14.10;58.20;;;;;;4969250;28;95730;-78
2023/12/04 02:22:20;;;;;;;152.00;58.17;;;14.00;58.20;;;;;;4966317;28;99476;-78
2023/12/04 02:24:47;;;;;;;153.65;59.53;;;14.00;58.10;;;;;;4964866;28;96121;-79
2023/12/04 02:27:20;;;;;;;151.43;58.42;;;14.00;58.10;;;;;;4972633;28;95649;-79
2023/12/04 02:29:56;;;;;;;150.60;57.67;;;14.00;58.10;;;;;;4971233;28;95832;-80
2023/12/04 02:32:24;;;;;;;151.57;57.75;;;14.00;58.10;;;;;;4966639;28;95173;-79
2023/12/04 02:34:52;;;;;;;151.80;58.20;;;14.00;58.10;;;;;;4970129;28;95301;-77
2023/12/04 02:37:19;;;;;;;152.90;58.97;;;14.00;58.10;;;;;;4967977;28;95356;-78
2023/12/04 02:39:44;;;;;;;153.00;58.65;;;14.00;58.10;;;;;;4958613;28;98896;-78
2023/12/04 02:42:13;;;;;;;151.45;58.33;;;13.90;58.10;;;;;;4962109;28;97865;-84
2023/12/04 02:44:39;;;;;;;150.98;58.20;;;13.90;58.10;;;;;;4969105;28;94625;-79
2023/12/04 02:47:05;;;;;;;152.15;58.92;;;13.90;58.10;;;;;;4951262;28;97336;-79
2023/12/04 02:49:30;;;;;;;151.43;58.53;;;13.90;58.10;;;;;;4976431;28;95899;-79
2023/12/04 02:51:57;;;;;;;151.55;58.33;;;13.90;58.20;;;;;;4969895;28;96917;-86
2023/12/04 02:54:23;;;;;;;151.65;58.42;;;13.90;58.20;;;;;;4970844;28;95026;-80
2023/12/04 02:56:49;;;;;;;151.07;58.78;;;13.90;58.20;;;;;;4965846;28;95222;-80
2023/12/04 02:59:15;;;;;;;150.60;58.30;;;13.90;58.10;;;;;;4971369;28;96046;-77
2023/12/04 03:01:40;;;;;;;149.38;58.17;;;13.90;58.10;;;;;;4956175;28;99234;-80
2023/12/04 03:04:06;;;;;;;145.63;57.75;;;13.80;58.10;;;;;;4968406;28;95895;-79
2023/12/04 03:06:32;;;;;;;142.50;57.28;;;13.80;58.10;;;;;;4971902;28;95640;-81
2023/12/04 03:08:59;;;;;;;138.68;56.83;;;13.80;58.10;;;;;;4966130;28;95741;-79
2023/12/04 03:11:24;;;;;;;137.57;56.75;;;13.80;58.10;;;;;;4947635;28;98905;-76
2023/12/04 03:13:50;;;;;;;137.77;57.60;;;13.80;58.10;;;;;;4976269;28;96616;-79
2023/12/04 03:16:17;;;;;;;137.13;57.10;;;13.80;58.10;;;;;;4954346;28;95383;-79
2023/12/04 03:18:43;;;;;;;135.48;56.92;;;13.80;58.10;;;;;;4966331;28;94864;-79
2023/12/04 03:21:09;;;;;;;136.95;57.67;;;13.80;58.10;;;;;;4964945;28;96202;-79
2023/12/04 03:23:34;;;;;;;133.63;56.17;;;13.80;58.10;;;;;;4951919;28;94868;-78
2023/12/04 03:26:00;;;;;;;134.65;57.05;;;13.80;58.20;;;;;;4949443;28;95500;-81
2023/12/04 03:28:25;;;;;;;133.02;56.35;;;13.70;58.10;;;;;;4965172;28;98062;-81
2023/12/04 03:30:51;;;;;;;134.13;56.53;;;13.70;58.00;;;;;;4964854;28;96079;-78
2023/12/04 03:33:17;;;;;;;133.50;56.58;;;13.70;58.00;;;;;;4969414;28;95777;-80
2023/12/04 03:35:43;;;;;;;131.82;56.05;;;13.70;58.10;;;;;;4953551;28;99347;-80
2023/12/04 03:38:09;;;;;;;133.90;56.92;;;13.70;58.10;;;;;;4944282;28;98726;-80
2023/12/04 03:40:34;;;;;;;133.10;56.28;;;13.70;58.10;;;;;;4963114;28;95180;-81
2023/12/04 03:43:00;;;;;;;133.60;56.72;;;13.70;58.10;;;;;;4962714;28;96261;-81
2023/12/04 03:45:25;;;;;;;134.85;56.33;;;13.70;58.00;;;;;;4972318;28;94866;-80
2023/12/04 03:47:51;;;;;;;140.18;57.42;;;14.30;57.20;;;;;;4968702;28;96892;-81
2023/12/04 03:50:17;;;;;;;145.88;58.13;;;17.40;52.40;;;;;;4972933;28;95283;-82
2023/12/04 03:52:42;;;;;;;154.00;60.42;;;21.90;41.10;;;;;;4973006;28;85154;-81
2023/12/04 03:55:09;;;;;;;160.38;64.20;;;25.30;33.50;;;;;;4984302;28;89868;-81
2023/12/04 03:57:34;;;;;;;165.45;68.15;;;27.60;29.40;;;;;;4971208;28;96102;-81
2023/12/04 04:00:00;;;;;;;167.75;71.80;;;28.50;27.40;;;;;;4957681;28;95592;-81
2023/12/04 04:02:25;;;;;;;166.80;70.78;;;28.40;27.20;;;;;;4942511;28;96294;-81
2023/12/04 04:04:51;;;;;;;167.73;72.70;;;28.00;27.30;;;;;;4970908;28;94817;-81
2023/12/04 04:07:17;;;;;;;166.93;71.70;;;27.60;27.60;;;;;;4969749;28;95592;-77
2023/12/04 04:09:43;;;;;;;167.13;72.75;;;27.20;28.00;;;;;;4944765;28;98811;-78
2023/12/04 04:12:09;;;;;;;166.15;71.57;;;26.80;28.40;;;;;;4957911;28;95792;-88
2023/12/04 04:14:35;;;;;;;166.15;71.28;;;26.50;28.80;;;;;;4974638;28;94467;-84
2023/12/04 04:17:00;;;;;;;167.70;71.90;;;26.10;29.10;;;;;;4977038;28;98899;-81
2023/12/04 04:19:26;;;;;;;164.90;69.78;;;25.80;29.60;;;;;;4970267;28;95487;-81
2023/12/04 04:21:52;;;;;;;164.68;69.28;;;25.40;29.90;;;;;;4958257;28;95602;-81
2023/12/04 04:24:18;;;;;;;164.27;69.10;;;25.20;30.30;;;;;;4947562;28;94957;-81
2023/12/04 04:26:43;;;;;;;163.07;68.53;;;24.90;30.60;;;;;;4960085;28;97041;-80
2023/12/04 04:29:09;;;;;;;161.52;66.13;;;24.60;31.10;;;;;;4965311;28;96085;-80
2023/12/04 04:31:35;;;;;;;162.70;67.72;;;24.40;31.40;;;;;;4966772;28;95083;-80
2023/12/04 04:34:01;;;;;;;161.73;66.97;;;24.10;32.00;;;;;;4949183;28;96054;-80
2023/12/04 04:36:26;;;;;;;160.52;65.93;;;23.80;32.40;;;;;;4967976;28;95222;-80
2023/12/04 04:38:52;;;;;;;160.38;65.38;;;23.50;33.00;;;;;;4968013;28;94783;-80
2023/12/04 04:41:18;;;;;;;160.88;65.90;;;23.30;33.60;;;;;;4966696;28;94997;-80
2023/12/04 04:43:44;;;;;;;162.27;66.25;;;23.10;34.30;;;;;;4968285;28;93890;-80
2023/12/04 04:46:09;;;;;;;159.77;64.70;;;22.90;34.80;;;;;;4966840;28;97437;-80
2023/12/04 04:48:35;;;;;;;159.93;65.03;;;22.60;35.30;;;;;;4948150;28;98437;-79
2023/12/04 04:51:01;;;;;;;159.32;64.60;;;22.40;35.60;;;;;;4963548;28;96698;-79
2023/12/04 04:53:26;;;;;;;163.43;64.38;;;22.20;36.20;;;;;;4964796;28;95200;-80
2023/12/04 04:55:52;;;;;;;159.23;64.47;;;22.00;36.40;;;;;;4969421;28;95527;-80
2023/12/04 04:58:18;;;;;;;158.45;64.40;;;21.90;36.70;;;;;;4966910;28;99551;-80
2023/12/04 05:00:45;;;;;;;158.60;64.35;;;21.70;37.10;;;;;;4963007;28;97083;-80
2023/12/04 05:03:10;;;;;;;161.98;63.60;;;21.50;37.40;;;;;;4968218;28;98026;-80
2023/12/04 05:05:36;;;;;;;158.18;64.15;;;21.30;37.70;;;;;;4972348;28;95384;-80
2023/12/04 05:08:01;;;;;;;158.32;62.72;;;21.20;38.00;;;;;;4975428;28;94704;-80
2023/12/04 05:10:27;;;;;;;156.20;61.63;;;21.00;38.30;;;;;;4968358;28;95526;-80
2023/12/04 05:12:53;;;;;;;156.18;62.15;;;20.90;38.70;;;;;;4951755;28;96603;-80
2023/12/04 05:15:18;;;;;;;155.85;62.80;;;20.80;39.10;;;;;;4965280;28;97462;-80
2023/12/04 05:17:44;;;;;;;154.10;62.03;;;20.60;39.30;;;;;;4962566;28;96071;-80
2023/12/04 05:20:10;;;;;;;154.88;61.97;;;20.40;39.70;;;;;;4950511;28;95459;-79
2023/12/04 05:22:36;;;;;;;154.10;61.38;;;20.30;40.00;;;;;;4965036;28;95429;-80
2023/12/04 05:25:01;;;;;;;156.18;61.88;;;20.20;40.20;;;;;;4967173;28;96725;-80
2023/12/04 05:27:27;;;;;;;153.43;60.95;;;20.10;40.40;;;;;;4962502;28;97776;-80
2023/12/04 05:29:52;;;;;;;155.25;60.83;;;19.90;40.60;;;;;;4964731;28;95781;-79
2023/12/04 05:32:18;;;;;;;149.98;59.88;;;19.60;41.40;;;;;;4964575;28;94281;-79
2023/12/04 05:34:44;;;;;;;149.40;59.92;;;19.40;42.00;;;;;;4947440;28;97707;-78
2023/12/04 05:37:09;;;;;;;149.75;60.60;;;19.30;42.20;;;;;;4968627;28;95383;-79
2023/12/04 05:39:35;;;;;;;150.00;59.50;;;19.20;42.40;;;;;;4967516;28;102581;-78
2023/12/04 05:42:01;;;;;;;146.13;58.42;;;19.20;42.40;;;;;;4943660;28;96149;-87
2023/12/04 05:44:26;;;;;;;145.68;58.78;;;19.10;42.70;;;;;;4954982;28;97414;-84
2023/12/04 05:46:52;;;;;;;147.13;59.22;;;18.90;42.90;;;;;;4967410;28;95456;-87
2023/12/04 05:49:17;;;;;;;146.88;59.45;;;18.80;43.30;;;;;;4951379;28;95020;-88
2023/12/04 05:51:43;;;;;;;147.32;58.90;;;18.70;43.60;;;;;;4969036;28;95712;-80
2023/12/04 05:54:09;;;;;;;146.88;59.03;;;18.50;43.90;;;;;;5003856;22;96758;-34
2023/12/04 05:56:34;;;;;;;145.05;58.22;;;18.30;44.30;;;;;;5000082;22;95856;-73
2023/12/04 05:59:00;;;;;;;144.10;58.30;;;18.00;44.60;;;;;;4967135;28;95145;-73
2023/12/04 06:01:26;;;;;;;144.43;58.63;;;18.00;45.20;;;;;;5002292;22;95147;-72
2023/12/04 06:03:51;;;;;;;146.30;59.20;;;17.90;45.40;;;;;;4984997;28;97601;-75
2023/12/04 06:06:17;;;;;;;144.93;57.95;;;17.90;45.50;;;;;;4986949;28;95859;-73
2023/12/04 06:08:43;;;;;;;144.38;59.15;;;17.70;46.00;;;;;;4990932;22;94853;-42
2023/12/04 06:11:08;;;;;;;143.23;58.35;;;17.40;46.50;;;;;;5004442;22;95260;-72
2023/12/04 06:13:34;;;;;;;144.82;58.85;;;17.20;46.80;;;;;;4986281;28;96235;-72
2023/12/04 06:16:00;;;;;;;143.10;57.78;;;16.90;47.50;;;;;;4984072;28;96247;-73
2023/12/04 06:18:25;;;;;;;140.82;57.55;;;16.70;48.20;;;;;;4980131;27;95617;-72
2023/12/04 06:20:51;;;;;;;142.57;57.83;;;16.50;48.60;;;;;;5006261;27;95462;-77
2023/12/04 06:23:17;;;;;;;141.27;57.97;;;16.20;49.30;;;;;;5011098;27;95340;-74
2023/12/04 06:25:43;;;;;;;145.60;57.70;;;16.10;50.00;;;;;;5011182;27;95939;-75
2023/12/04 06:28:10;;;;;;;144.10;57.38;;;15.90;50.70;;;;;;4985468;27;96925;-73
2023/12/04 06:30:36;;;;;;;141.23;57.35;;;15.80;51.20;;;;;;5009392;27;96069;-72
2023/12/04 06:33:02;;;;;;;140.05;57.53;;;15.70;51.60;;;;;;4989139;27;95515;-74
2023/12/04 06:35:28;;;;;;;140.32;57.00;;;15.50;51.90;;;;;;5005684;27;96324;-74
2023/12/04 06:37:54;;;;;;;145.10;57.47;;;15.60;52.00;;;;;;5005600;27;94697;-75
2023/12/04 06:40:21;;;;;;;141.07;57.60;;;15.40;52.10;;;;;;4987529;28;95784;-71
2023/12/04 06:42:47;;;;;;;143.93;58.78;;;15.40;52.60;;;;;;4980489;27;96132;-72
2023/12/04 06:45:13;;;;;;;154.85;59.65;;;15.30;52.80;;;;;;4970913;22;95898;-32
2023/12/04 06:47:45;;;;;;;139.02;57.67;;;15.30;53.30;;;;;;4974651;22;95348;-72
2023/12/04 06:50:13;;;;;;;140.40;57.17;;;15.30;53.10;;;;;;4973925;28;95545;-75
2023/12/04 06:52:39;;;;;;;138.88;56.88;;;15.20;53.10;;;;;;4971548;28;96383;-71
2023/12/04 06:55:05;;;;;;;138.40;56.65;;;15.10;53.20;;;;;;4973527;28;96328;-76
2023/12/04 06:57:30;;;;;;;141.70;57.55;;;15.10;53.30;;;;;;4972249;28;96047;-73
2023/12/04 06:59:56;;;;;;;139.15;56.90;;;15.00;53.30;;;;;;4979329;28;95245;-73
2023/12/04 07:02:22;;;;;;;144.20;59.00;;;15.00;53.50;;;;;;5027110;22;95309;-81
2023/12/04 07:04:48;;;;;;;145.15;57.58;;;14.90;53.50;;;;;;5026640;27;95826;-85
2023/12/04 07:07:13;;;;;;;143.13;57.53;;;14.90;53.50;;;;;;5004872;28;94316;-84
2023/12/04 07:09:39;;;;;;;141.73;57.72;;;14.80;53.40;;;;;;5017245;27;93714;-83
2023/12/04 07:12:05;;;;;;;141.70;58.10;;;14.80;53.80;;;;;;4999786;27;96974;-90
2023/12/04 07:14:31;;;;;;;144.70;58.38;;;14.70;54.00;;;;;;5024524;27;95914;-89
2023/12/04 07:16:56;;;;;;;143.50;57.55;;;14.70;54.40;;;;;;5020609;27;96193;-80
2023/12/04 07:19:22;;;;;;;144.63;58.22;;;14.70;54.70;;;;;;4995615;28;95938;-75
2023/12/04 07:21:48;;;;;;;142.80;58.38;;;14.60;54.50;;;;;;5009869;27;95122;-79
2023/12/04 07:24:14;;;;;;;141.70;57.42;;;14.60;54.30;;;;;;5014097;27;95527;-79
2023/12/04 07:26:39;;;;;;;141.63;58.55;;;14.60;54.10;;;;;;4997090;27;94576;-80
2023/12/04 07:29:05;;;;;;;140.48;57.88;;;14.60;54.00;;;;;;4975173;28;95454;-81
2023/12/04 07:31:31;;;;;;;143.40;58.90;;;14.60;53.90;;;;;;4988418;28;96535;-80
2023/12/04 07:33:57;;;;;;;143.35;59.22;;;14.60;53.80;;;;;;4991375;28;94403;-81
2023/12/04 07:36:24;;;;;;;140.43;58.10;;;14.70;53.70;;;;;;4972924;28;95223;-80
2023/12/04 07:38:50;;;;;;;143.07;58.28;;;14.70;53.60;;;;;;4991947;28;95100;-80
2023/12/04 07:41:18;;;;;;;145.55;59.15;;;14.70;53.60;;;;;;4990745;28;96224;-80
2023/12/04 07:43:43;;;;;;;141.95;60.13;;;14.70;53.50;;;;;;4989041;28;96735;-80
2023/12/04 07:46:10;;;;;;;143.48;59.30;;;14.80;53.50;;;;;;4990660;28;95598;-77
2023/12/04 07:48:36;;;;;;;140.40;59.17;;;14.80;53.30;;;;;;4989569;28;94489;-77
2023/12/04 07:51:02;;;;;;;139.65;58.65;;;14.90;53.20;;;;;;4988241;28;96766;-77
2023/12/04 07:53:28;;;;;;;143.13;59.28;;;15.00;53.10;;;;;;4990816;28;95444;-77
2023/12/04 07:55:53;;;;;;;147.23;58.67;;;15.00;52.90;;;;;;4991516;28;95149;-78
2023/12/04 07:58:19;;;;;;;138.73;58.47;;;15.00;52.80;;;;;;4992080;28;94882;-77
2023/12/04 08:00:45;;;;;;;142.50;59.40;;;15.10;52.70;;;;;;4988342;28;96697;-78
2023/12/04 08:03:11;;;;;;;141.73;59.55;;;15.10;52.70;;;;;;4990061;28;95823;-78
2023/12/04 08:05:36;;;;;;;142.15;59.80;;;15.10;52.60;;;;;;4971977;28;95932;-78
2023/12/04 08:08:02;;;;;;;139.55;58.90;;;15.10;53.20;;;;;;4988224;28;95267;-77
2023/12/04 08:10:28;;;;;;;139.98;58.40;;;15.10;52.50;;;;;;4978094;28;99093;-78
2023/12/04 08:12:53;;;;;;;139.77;58.20;;;15.10;52.50;;;;;;4990557;28;95232;-76
2023/12/04 08:15:19;;;;;;;138.35;58.25;;;15.10;52.60;;;;;;4989809;28;95940;-77
2023/12/04 08:17:45;;;;;;;139.80;58.75;;;15.10;52.60;;;;;;4970517;28;94910;-77
2023/12/04 08:20:14;;;;;;;139.35;58.33;;;15.10;53.30;;;;;;4995394;28;95720;-86
2023/12/04 08:22:41;;;;;;;140.02;58.78;;;15.00;52.70;;;;;;4994918;28;94942;-86
2023/12/04 08:25:07;;;;;;;140.75;59.35;;;15.00;52.80;;;;;;4991310;28;96682;-87
2023/12/04 08:27:33;;;;;;;140.57;58.97;;;14.90;52.90;;;;;;4999016;28;94359;-85
2023/12/04 08:29:59;;;;;;;139.73;59.45;;;14.90;52.90;;;;;;4998144;28;96561;-83
2023/12/04 08:32:28;;;;;;;176.30;83.40;;;14.90;53.10;;;;;;4993510;28;97941;-88
2023/12/04 08:34:53;;;;;;;176.35;86.05;;;14.80;53.30;;;;;;4976177;28;95519;-85
2023/12/04 08:37:20;;;;;;;173.32;80.00;;;14.80;53.40;;;;;;4997310;28;93970;-85
2023/12/04 08:39:45;;;;;;;159.18;74.80;;;14.80;53.50;;;;;;4974719;28;97879;-87
2023/12/04 08:42:12;;;;;;;159.85;71.30;;;14.80;53.30;;;;;;4998415;28;94475;-86
2023/12/04 08:44:38;;;;;;;158.43;71.15;;;14.90;53.20;;;;;;4997833;28;96055;-79
2023/12/04 08:47:04;;;;;;;156.93;70.88;;;15.00;53.10;;;;;;4978968;28;94325;-80
2023/12/04 08:49:30;;;;;;;156.27;69.13;;;15.10;52.90;;;;;;4975597;28;97846;-80
2023/12/04 08:51:56;;;;;;;157.98;68.35;;;15.20;52.80;;;;;;4992202;28;95553;-79
2023/12/04 08:54:21;;;;;;;150.95;67.00;;;15.30;52.60;;;;;;4994589;28;96688;-80
2023/12/04 08:56:47;;;;;;;149.82;66.53;;;15.30;52.50;;;;;;4995817;28;94470;-87
2023/12/04 08:59:13;;;;;;;150.80;65.15;;;15.30;52.50;;;;;;4993990;28;94578;-79
2023/12/04 09:01:39;;;;;;;149.55;66.07;;;15.30;52.50;;;;;;4994100;28;95355;-79
2023/12/04 09:04:04;;;;;;;150.40;65.32;;;15.30;52.50;;;;;;4979114;28;95260;-80
2023/12/04 09:06:30;;;;;;;150.55;65.15;;;15.30;52.50;;;;;;5015141;28;94567;-81
2023/12/04 09:08:56;;;;;;;146.88;64.85;;;15.30;52.50;;;;;;4996076;28;95457;-80
2023/12/04 09:11:22;;;;;;;147.57;64.93;;;15.30;52.50;;;;;;4990653;28;94699;-81
2023/12/04 09:13:47;;;;;;;145.60;63.53;;;15.20;52.50;;;;;;4995533;28;95540;-80
2023/12/04 09:16:13;;;;;;;154.55;68.70;;;15.30;52.50;;;;;;4994942;28;94325;-80
2023/12/04 09:18:39;;;;;;;157.05;69.20;;;15.20;52.60;;;;;;4993319;28;98370;-80
2023/12/04 09:21:05;;;;;;;153.15;67.40;;;15.30;52.80;;;;;;4998199;28;95976;-80
2023/12/04 09:23:31;;;;;;;152.15;66.50;;;15.30;52.80;;;;;;4972844;28;94678;-80
2023/12/04 09:25:57;;;;;;;151.05;66.47;;;15.40;53.30;;;;;;4992825;28;94785;-80
2023/12/04 09:28:22;;;;;;;150.52;66.18;;;15.50;52.70;;;;;;4989149;28;95566;-80
2023/12/04 09:30:48;;;;;;;151.73;65.57;;;15.50;52.40;;;;;;4994654;28;96429;-78
2023/12/04 09:33:14;;;;;;;147.75;64.35;;;15.60;52.40;;;;;;4996086;28;95439;-77
2023/12/04 09:35:39;;;;;;;145.80;63.95;;;15.60;52.30;;;;;;4976048;28;96280;-78
2023/12/04 09:38:05;;;;;;;146.98;63.83;;;15.70;52.20;;;;;;4993388;28;95327;-78
2023/12/04 09:40:31;;;;;;;148.82;63.47;;;15.80;52.10;;;;;;4996657;28;94903;-78
2023/12/04 09:42:57;;;;;;;146.68;63.38;;;15.80;52.70;;;;;;4972368;28;96049;-78
2023/12/04 09:45:24;;;;;;;156.57;73.45;;;15.80;52.10;;;;;;4993087;28;95647;-78
2023/12/04 09:47:50;;;;;;;153.50;69.45;;;15.80;52.10;;;;;;4992077;28;94926;-78
2023/12/04 09:50:21;;;;;;;151.63;68.60;;;15.80;52.10;;;;;;4994335;28;94701;-77
2023/12/04 09:52:52;;;;;;;152.68;68.95;;;15.80;52.00;;;;;;4994684;28;94702;-77
2023/12/04 09:55:19;;;;;;;152.70;69.17;;;15.80;52.00;;;;;;4992620;28;94901;-78
2023/12/04 09:57:46;;;;;;;149.90;66.47;;;15.80;52.00;;;;;;4999461;28;99391;-79
2023/12/04 10:00:13;;;;;;;151.30;66.72;;;15.90;52.00;;;;;;4997385;28;95532;-79
2023/12/04 10:02:40;;;;;;;154.70;65.78;;;15.80;51.90;;;;;;4992260;28;95390;-78
2023/12/04 10:05:06;;;;;;;146.52;65.07;;;15.90;52.00;;;;;;4976054;28;94718;-78
2023/12/04 10:07:32;;;;;;;146.32;64.78;;;15.90;51.90;;;;;;4990726;28;98486;-79
2023/12/04 10:09:58;;;;;;;148.57;64.57;;;15.90;52.00;;;;;;4992363;28;96470;-79
2023/12/04 10:12:24;;;;;;;150.95;64.85;;;15.90;52.00;;;;;;4977319;28;96690;-80
2023/12/04 10:15:04;;;;;;;145.38;63.05;;;15.90;52.00;;;;;;4992767;28;94419;-80
2023/12/04 10:17:35;;;;;;;147.95;64.10;;;15.80;51.90;;;;;;4991637;28;96342;-80
2023/12/04 10:20:12;;;;;;;147.77;64.10;;;15.80;52.10;;;;;;4991146;28;95409;-80
2023/12/04 10:23:02;;;;;;;147.32;62.83;;;15.80;52.00;;;;;;4979002;28;94773;-81
2023/12/04 10:25:30;;;;;;;142.90;61.67;;;15.80;52.10;;;;;;4986605;28;97113;-82
2023/12/04 10:28:16;;;;;;;146.07;63.22;;;15.70;52.10;;;;;;4998427;28;95327;-79
2023/12/04 10:30:42;;;;;;;145.05;63.80;;;15.70;52.30;;;;;;4989684;28;95237;-79
2023/12/04 10:33:08;;;;;;;145.60;62.40;;;15.60;52.40;;;;;;4967254;28;96183;-80
2023/12/04 10:35:38;;;;;;;146.00;62.58;;;15.70;52.40;;;;;;4975125;28;94911;-79
2023/12/04 10:38:05;;;;;;;150.02;63.17;;;15.60;52.40;;;;;;4978928;28;98238;-80
2023/12/04 10:40:33;;;;;;;143.48;61.70;;;15.70;52.40;;;;;;4984771;28;98706;-82
2023/12/04 10:43:14;;;;;;;145.00;64.05;;;15.70;52.40;;;;;;4992986;28;94697;-79
2023/12/04 10:45:41;;;;;;;142.85;61.35;;;15.60;52.40;;;;;;4978548;28;95507;-80
2023/12/04 10:48:08;;;;;;;141.85;61.58;;;15.60;52.50;;;;;;4993453;28;94992;-76
2023/12/04 10:50:43;;;;;;;143.27;61.17;;;15.60;52.50;;;;;;4991949;28;94895;-76
2023/12/04 10:53:11;;;;;;;143.13;61.53;;;15.60;52.60;;;;;;4987800;28;95341;-77
2023/12/04 10:55:38;;;;;;;139.23;59.85;;;15.60;52.60;;;;;;4974480;28;94753;-79
2023/12/04 10:58:11;;;;;;;141.63;61.15;;;15.60;52.70;;;;;;4986280;28;96679;-78
2023/12/04 11:01:00;;;;;;;146.45;65.45;;;15.50;52.80;;;;;;4989623;28;95854;-79
2023/12/04 11:03:34;;;;;;;150.10;66.65;;;15.50;53.00;;;;;;4987913;28;96509;-79
2023/12/04 11:06:01;;;;;;;151.25;65.03;;;15.50;53.00;;;;;;4990586;28;95142;-78
2023/12/04 11:08:33;;;;;;;146.13;64.35;;;15.60;53.00;;;;;;4988878;28;94875;-78
2023/12/04 11:11:09;;;;;;;147.20;64.35;;;15.70;52.90;;;;;;4989305;28;95429;-78
2023/12/04 11:13:41;;;;;;;144.27;62.63;;;15.70;52.90;;;;;;4993182;28;99792;-78
2023/12/04 11:16:54;;;;;;;145.18;63.08;;;15.80;52.70;;;;;;4992286;28;93520;-78
2023/12/04 11:20:01;;;;;;;145.48;63.22;;;15.80;52.50;;;;;;4956120;28;95032;-78
2023/12/04 11:22:28;;;;;;;144.45;62.17;;;15.80;52.40;;;;;;4987906;28;94624;-79
2023/12/04 11:24:55;;;;;;;145.32;63.08;;;15.90;52.40;;;;;;4972776;28;96741;-78
2023/12/04 11:27:22;;;;;;;145.35;62.15;;;15.90;52.30;;;;;;4988251;28;95295;-78
2023/12/04 11:29:49;;;;;;;142.98;61.55;;;15.90;52.30;;;;;;4989790;28;95293;-78
2023/12/04 11:32:20;;;;;;;143.68;61.95;;;15.90;52.30;;;;;;4977352;28;97923;-79
2023/12/04 11:34:54;;;;;;;143.73;62.30;;;16.00;52.30;;;;;;4990434;28;95243;-79
2023/12/04 11:37:21;;;;;;;144.85;62.03;;;15.90;52.20;;;;;;4988749;28;95391;-79
2023/12/04 11:39:50;;;;;;;143.68;62.60;;;15.90;52.30;;;;;;4988140;28;98384;-79
2023/12/04 11:42:20;;;;;;;143.38;62.00;;;15.90;52.30;;;;;;4992546;28;97701;-79
2023/12/04 11:44:49;;;;;;;175.40;82.78;;;15.80;52.40;;;;;;4989521;28;95128;-79
2023/12/04 11:47:15;;;;;;;193.38;95.80;;;15.80;52.60;;;;;;4993083;28;95235;-79
2023/12/04 11:49:41;;;;;;;184.32;91.97;;;15.80;52.80;;;;;;4986178;28;96477;-80
2023/12/04 11:52:09;;;;;;;182.32;88.05;;;15.90;53.60;;;;;;4989808;28;95626;-80
2023/12/04 11:55:04;;;;;;;178.40;82.72;;;16.00;53.20;;;;;;4994251;28;96117;-82
2023/12/04 11:57:34;;;;;;;170.52;81.05;;;16.10;52.60;;;;;;4987570;28;94549;-81
2023/12/04 12:00:14;;;;;;;168.32;77.88;;;16.20;52.30;;;;;;4989642;28;96435;-79
2023/12/04 12:02:41;;;;;;;166.07;77.40;;;16.20;52.30;;;;;;4990237;28;97007;-80
2023/12/04 12:05:10;;;;;;;165.20;76.72;;;16.20;52.30;;;;;;4974653;28;94799;-82
2023/12/04 12:07:35;;;;;;;162.23;75.95;;;16.20;52.90;;;;;;4985729;28;95039;-83
2023/12/04 12:10:01;;;;;;;160.90;74.20;;;16.20;52.40;;;;;;4990134;28;96652;-81
2023/12/04 12:12:28;;;;;;;159.48;72.38;;;16.10;52.40;;;;;;4991208;28;94294;-80
2023/12/04 12:14:54;;;;;;;160.77;71.95;;;16.10;52.50;;;;;;4988567;28;96193;-79
2023/12/04 12:17:19;;;;;;;158.05;71.47;;;16.10;52.50;;;;;;4977497;28;94378;-79
2023/12/04 12:19:45;;;;;;;160.15;72.53;;;16.10;52.60;;;;;;4995555;28;95971;-79
2023/12/04 12:22:11;;;;;;;157.77;70.32;;;16.10;52.60;;;;;;4996853;28;94618;-79
2023/12/04 12:24:37;;;;;;;154.70;69.50;;;16.10;52.50;;;;;;4989062;28;94842;-79
2023/12/04 12:27:04;;;;;;;153.10;68.50;;;16.10;52.70;;;;;;4999657;28;94471;-78
2023/12/04 12:29:29;;;;;;;152.88;68.57;;;16.10;52.70;;;;;;4996069;28;95685;-79
2023/12/04 12:31:55;;;;;;;156.15;70.68;;;16.10;52.70;;;;;;5001079;28;94324;-79
2023/12/04 12:34:21;;;;;;;155.82;72.38;;;16.10;52.80;;;;;;4980022;28;94485;-80